sensor_id;sensor_type;location;lat;lon;timestamp;temperature;humidity
23371;DHT22;11858;51.056;3.712;2023-02-03T00:02:18;10.20;99.90
23371;DHT22;11858;51.056;3.712;2023-02-03T00:04:44;10.20;99.90
23371;DHT22;11858;51.056;3.712;2023-02-03T00:07:11;10.10;99.90
23371;DHT22;11858;51.056;3.712;2023-02-03T00:09:38;10.10;99.90
23371;DHT22;11858;51.056;3.712;2023-02-03T00:12:05;10.10;99.90
23371;DHT22;11858;51.056;3.712;2023-02-03T00:14:30;10.10;99.90
23371;DHT22;11858;51.056;3.712;2023-02-03T00:16:58;10.20;99.90
23371;DHT22;11858;51.056;3.712;2023-02-03T00:19:24;10.20;99.90
23371;DHT22;11858;51.056;3.712;2023-02-03T00:21:49;10.20;99.90
23371;DHT22;11858;51.056;3.712;2023-02-03T00:24:16;10.20;99.90
23371;DHT22;11858;51.056;3.712;2023-02-03T00:26:43;10.30;99.90
23371;DHT22;11858;51.056;3.712;2023-02-03T00:29:09;10.30;99.90
23371;DHT22;11858;51.056;3.712;2023-02-03T00:31:35;10.20;99.90
23371;DHT22;11858;51.056;3.712;2023-02-03T00:34:00;10.30;99.90
23371;DHT22;11858;51.056;3.712;2023-02-03T00:36:26;10.40;99.90
23371;DHT22;11858;51.056;3.712;2023-02-03T00:38:53;10.50;99.90
23371;DHT22;11858;51.056;3.712;2023-02-03T00:41:20;10.40;99.90
23371;DHT22;11858;51.056;3.712;2023-02-03T00:43:46;10.40;99.90
23371;DHT22;11858;51.056;3.712;2023-02-03T00:46:13;10.50;99.90
23371;DHT22;11858;51.056;3.712;2023-02-03T00:48:38;10.50;99.90
23371;DHT22;11858;51.056;3.712;2023-02-03T00:51:05;10.30;99.90
23371;DHT22;11858;51.056;3.712;2023-02-03T00:53:31;10.40;99.90
23371;DHT22;11858;51.056;3.712;2023-02-03T00:55:57;10.40;99.90
23371;DHT22;11858;51.056;3.712;2023-02-03T00:58:22;10.50;99.90
23371;DHT22;11858;51.056;3.712;2023-02-03T01:00:48;10.50;99.90
23371;DHT22;11858;51.056;3.712;2023-02-03T01:03:15;10.50;99.90
23371;DHT22;11858;51.056;3.712;2023-02-03T01:05:41;10.60;99.90
23371;DHT22;11858;51.056;3.712;2023-02-03T01:08:07;10.60;99.90
23371;DHT22;11858;51.056;3.712;2023-02-03T01:10:32;10.40;99.90
23371;DHT22;11858;51.056;3.712;2023-02-03T01:12:58;10.40;99.90
23371;DHT22;11858;51.056;3.712;2023-02-03T01:15:24;10.50;99.90
23371;DHT22;11858;51.056;3.712;2023-02-03T01:17:50;10.50;99.90
23371;DHT22;11858;51.056;3.712;2023-02-03T01:20:16;10.40;99.90
23371;DHT22;11858;51.056;3.712;2023-02-03T01:22:42;10.50;99.90
23371;DHT22;11858;51.056;3.712;2023-02-03T01:25:08;10.50;99.90
23371;DHT22;11858;51.056;3.712;2023-02-03T01:27:34;10.40;99.90
23371;DHT22;11858;51.056;3.712;2023-02-03T01:29:59;10.40;99.90
23371;DHT22;11858;51.056;3.712;2023-02-03T01:32:26;10.50;99.90
23371;DHT22;11858;51.056;3.712;2023-02-03T01:34:52;10.40;99.90
23371;DHT22;11858;51.056;3.712;2023-02-03T01:37:18;10.50;99.90
23371;DHT22;11858;51.056;3.712;2023-02-03T01:39:43;10.40;99.90
23371;DHT22;11858;51.056;3.712;2023-02-03T01:42:13;10.40;99.90
23371;DHT22;11858;51.056;3.712;2023-02-03T01:44:47;10.60;99.90
23371;DHT22;11858;51.056;3.712;2023-02-03T01:47:29;10.50;99.90
23371;DHT22;11858;51.056;3.712;2023-02-03T01:52:31;10.50;99.90
23371;DHT22;11858;51.056;3.712;2023-02-03T01:55:00;10.60;99.90
23371;DHT22;11858;51.056;3.712;2023-02-03T01:57:35;10.50;99.90
23371;DHT22;11858;51.056;3.712;2023-02-03T02:00:05;10.50;99.90
23371;DHT22;11858;51.056;3.712;2023-02-03T02:02:31;10.50;99.90
23371;DHT22;11858;51.056;3.712;2023-02-03T02:07:29;10.30;99.90
23371;DHT22;11858;51.056;3.712;2023-02-03T02:09:55;10.50;99.90
23371;DHT22;11858;51.056;3.712;2023-02-03T02:12:21;10.40;99.90
23371;DHT22;11858;51.056;3.712;2023-02-03T02:14:47;10.50;99.90
23371;DHT22;11858;51.056;3.712;2023-02-03T02:31:52;10.60;99.90
23371;DHT22;11858;51.056;3.712;2023-02-03T02:43:09;10.50;99.90
23371;DHT22;11858;51.056;3.712;2023-02-03T02:45:58;10.50;99.90
23371;DHT22;11858;51.056;3.712;2023-02-03T02:48:35;10.50;99.90
23371;DHT22;11858;51.056;3.712;2023-02-03T02:51:05;10.50;99.90
23371;DHT22;11858;51.056;3.712;2023-02-03T02:53:35;10.50;99.90
23371;DHT22;11858;51.056;3.712;2023-02-03T02:56:05;10.60;99.90
23371;DHT22;11858;51.056;3.712;2023-02-03T02:58:33;10.50;99.90
23371;DHT22;11858;51.056;3.712;2023-02-03T03:01:01;10.50;99.90
23371;DHT22;11858;51.056;3.712;2023-02-03T03:03:27;10.40;99.90
23371;DHT22;11858;51.056;3.712;2023-02-03T03:05:59;10.50;99.90
23371;DHT22;11858;51.056;3.712;2023-02-03T03:08:35;10.60;99.90
23371;DHT22;11858;51.056;3.712;2023-02-03T03:11:02;10.50;99.90
23371;DHT22;11858;51.056;3.712;2023-02-03T03:13:33;10.50;99.90
23371;DHT22;11858;51.056;3.712;2023-02-03T03:16:04;10.50;99.90
23371;DHT22;11858;51.056;3.712;2023-02-03T03:18:40;10.50;99.90
23371;DHT22;11858;51.056;3.712;2023-02-03T03:21:10;10.30;99.90
23371;DHT22;11858;51.056;3.712;2023-02-03T03:23:39;10.40;99.90
23371;DHT22;11858;51.056;3.712;2023-02-03T03:26:21;10.50;99.90
23371;DHT22;11858;51.056;3.712;2023-02-03T03:28:51;10.40;99.90
23371;DHT22;11858;51.056;3.712;2023-02-03T03:31:19;10.50;99.90
23371;DHT22;11858;51.056;3.712;2023-02-03T03:33:46;10.60;99.90
23371;DHT22;11858;51.056;3.712;2023-02-03T03:37:26;10.60;99.90
23371;DHT22;11858;51.056;3.712;2023-02-03T03:39:32;10.70;99.90
23371;DHT22;11858;51.056;3.712;2023-02-03T03:44:56;10.50;99.90
23371;DHT22;11858;51.056;3.712;2023-02-03T03:47:29;10.50;99.90
23371;DHT22;11858;51.056;3.712;2023-02-03T03:49:59;10.60;99.90
23371;DHT22;11858;51.056;3.712;2023-02-03T03:52:30;10.60;99.90
23371;DHT22;11858;51.056;3.712;2023-02-03T03:54:57;10.70;99.90
23371;DHT22;11858;51.056;3.712;2023-02-03T03:57:39;10.60;99.90
23371;DHT22;11858;51.056;3.712;2023-02-03T04:00:08;10.60;99.90
23371;DHT22;11858;51.056;3.712;2023-02-03T04:02:38;10.60;99.90
23371;DHT22;11858;51.056;3.712;2023-02-03T04:05:06;10.50;99.90
23371;DHT22;11858;51.056;3.712;2023-02-03T04:07:44;10.60;99.90
23371;DHT22;11858;51.056;3.712;2023-02-03T04:10:35;10.60;99.90
23371;DHT22;11858;51.056;3.712;2023-02-03T04:13:02;10.60;99.90
23371;DHT22;11858;51.056;3.712;2023-02-03T04:15:29;10.50;99.90
23371;DHT22;11858;51.056;3.712;2023-02-03T04:17:55;10.50;99.90
23371;DHT22;11858;51.056;3.712;2023-02-03T04:20:22;10.40;99.90
23371;DHT22;11858;51.056;3.712;2023-02-03T04:22:48;10.40;99.90
23371;DHT22;11858;51.056;3.712;2023-02-03T04:25:14;10.30;99.90
23371;DHT22;11858;51.056;3.712;2023-02-03T04:27:40;10.50;99.90
23371;DHT22;11858;51.056;3.712;2023-02-03T04:30:06;10.60;99.90
23371;DHT22;11858;51.056;3.712;2023-02-03T04:32:32;10.50;99.90
23371;DHT22;11858;51.056;3.712;2023-02-03T04:35:00;10.50;99.90
23371;DHT22;11858;51.056;3.712;2023-02-03T04:37:26;10.50;99.90
23371;DHT22;11858;51.056;3.712;2023-02-03T04:39:55;10.50;99.90
23371;DHT22;11858;51.056;3.712;2023-02-03T04:42:22;10.60;99.90
23371;DHT22;11858;51.056;3.712;2023-02-03T04:44:48;10.60;99.90
23371;DHT22;11858;51.056;3.712;2023-02-03T04:47:15;10.50;99.90
23371;DHT22;11858;51.056;3.712;2023-02-03T04:49:41;10.60;99.90
23371;DHT22;11858;51.056;3.712;2023-02-03T04:52:06;10.50;99.90
23371;DHT22;11858;51.056;3.712;2023-02-03T04:54:32;10.50;99.90
23371;DHT22;11858;51.056;3.712;2023-02-03T04:56:59;10.40;99.90
23371;DHT22;11858;51.056;3.712;2023-02-03T04:59:25;10.40;99.90
23371;DHT22;11858;51.056;3.712;2023-02-03T05:01:50;10.40;99.90
23371;DHT22;11858;51.056;3.712;2023-02-03T05:04:16;10.50;99.90
23371;DHT22;11858;51.056;3.712;2023-02-03T05:06:42;10.60;99.90
23371;DHT22;11858;51.056;3.712;2023-02-03T05:09:08;10.50;99.90
23371;DHT22;11858;51.056;3.712;2023-02-03T05:11:34;10.50;99.90
23371;DHT22;11858;51.056;3.712;2023-02-03T05:14:00;10.60;99.90
23371;DHT22;11858;51.056;3.712;2023-02-03T05:16:26;10.60;99.90
23371;DHT22;11858;51.056;3.712;2023-02-03T05:18:51;10.50;99.90
23371;DHT22;11858;51.056;3.712;2023-02-03T05:21:17;10.60;99.90
23371;DHT22;11858;51.056;3.712;2023-02-03T05:23:43;10.60;99.90
23371;DHT22;11858;51.056;3.712;2023-02-03T05:26:09;10.70;99.90
23371;DHT22;11858;51.056;3.712;2023-02-03T05:28:35;10.70;99.90
23371;DHT22;11858;51.056;3.712;2023-02-03T05:31:01;10.70;99.90
23371;DHT22;11858;51.056;3.712;2023-02-03T05:33:28;10.60;99.90
23371;DHT22;11858;51.056;3.712;2023-02-03T05:35:53;10.60;99.90
23371;DHT22;11858;51.056;3.712;2023-02-03T05:38:19;10.60;99.90
23371;DHT22;11858;51.056;3.712;2023-02-03T05:40:49;10.60;99.90
23371;DHT22;11858;51.056;3.712;2023-02-03T05:43:34;10.60;99.90
23371;DHT22;11858;51.056;3.712;2023-02-03T05:46:01;10.60;99.90
23371;DHT22;11858;51.056;3.712;2023-02-03T05:48:27;10.50;99.90
23371;DHT22;11858;51.056;3.712;2023-02-03T05:50:53;10.50;99.90
23371;DHT22;11858;51.056;3.712;2023-02-03T05:53:19;10.70;99.90
23371;DHT22;11858;51.056;3.712;2023-02-03T05:55:45;10.70;99.90
23371;DHT22;11858;51.056;3.712;2023-02-03T05:58:10;10.50;99.90
23371;DHT22;11858;51.056;3.712;2023-02-03T06:00:36;10.70;99.90
23371;DHT22;11858;51.056;3.712;2023-02-03T06:03:03;10.60;99.90
23371;DHT22;11858;51.056;3.712;2023-02-03T06:05:30;10.60;99.90
23371;DHT22;11858;51.056;3.712;2023-02-03T06:07:56;10.50;99.90
23371;DHT22;11858;51.056;3.712;2023-02-03T06:10:21;10.50;99.90
23371;DHT22;11858;51.056;3.712;2023-02-03T06:12:48;10.50;99.90
23371;DHT22;11858;51.056;3.712;2023-02-03T06:15:14;10.50;99.90
23371;DHT22;11858;51.056;3.712;2023-02-03T06:17:46;10.50;99.90
23371;DHT22;11858;51.056;3.712;2023-02-03T06:20:14;10.50;99.90
23371;DHT22;11858;51.056;3.712;2023-02-03T06:22:41;10.50;99.90
23371;DHT22;11858;51.056;3.712;2023-02-03T06:25:08;10.60;99.90
23371;DHT22;11858;51.056;3.712;2023-02-03T06:27:34;10.60;99.90
23371;DHT22;11858;51.056;3.712;2023-02-03T06:30:00;10.50;99.90
23371;DHT22;11858;51.056;3.712;2023-02-03T06:32:26;10.50;99.90
23371;DHT22;11858;51.056;3.712;2023-02-03T06:34:52;10.60;99.90
23371;DHT22;11858;51.056;3.712;2023-02-03T06:37:18;10.60;99.90
23371;DHT22;11858;51.056;3.712;2023-02-03T06:39:44;10.60;99.90
23371;DHT22;11858;51.056;3.712;2023-02-03T06:42:09;10.60;99.90
23371;DHT22;11858;51.056;3.712;2023-02-03T06:44:35;10.70;99.90
23371;DHT22;11858;51.056;3.712;2023-02-03T06:47:01;10.60;99.90
23371;DHT22;11858;51.056;3.712;2023-02-03T06:49:28;10.70;99.90
23371;DHT22;11858;51.056;3.712;2023-02-03T06:51:54;10.70;99.90
23371;DHT22;11858;51.056;3.712;2023-02-03T06:54:21;10.60;99.90
23371;DHT22;11858;51.056;3.712;2023-02-03T06:56:47;10.60;99.90
23371;DHT22;11858;51.056;3.712;2023-02-03T06:59:13;10.60;99.90
23371;DHT22;11858;51.056;3.712;2023-02-03T07:01:39;10.60;99.90
23371;DHT22;11858;51.056;3.712;2023-02-03T07:04:05;10.60;99.90
23371;DHT22;11858;51.056;3.712;2023-02-03T07:06:31;10.60;99.90
23371;DHT22;11858;51.056;3.712;2023-02-03T07:09:02;10.60;99.90
23371;DHT22;11858;51.056;3.712;2023-02-03T07:11:29;10.70;99.90
23371;DHT22;11858;51.056;3.712;2023-02-03T07:13:54;10.80;99.90
23371;DHT22;11858;51.056;3.712;2023-02-03T07:16:20;10.70;99.90
23371;DHT22;11858;51.056;3.712;2023-02-03T07:18:46;10.70;99.90
23371;DHT22;11858;51.056;3.712;2023-02-03T07:21:12;10.80;99.90
23371;DHT22;11858;51.056;3.712;2023-02-03T07:23:39;10.60;99.90
23371;DHT22;11858;51.056;3.712;2023-02-03T07:26:06;10.50;99.90
23371;DHT22;11858;51.056;3.712;2023-02-03T07:28:33;10.40;99.90
23371;DHT22;11858;51.056;3.712;2023-02-03T07:30:59;10.40;99.90
23371;DHT22;11858;51.056;3.712;2023-02-03T07:33:26;10.20;99.90
23371;DHT22;11858;51.056;3.712;2023-02-03T07:35:56;10.40;99.90
23371;DHT22;11858;51.056;3.712;2023-02-03T07:38:23;10.30;99.90
23371;DHT22;11858;51.056;3.712;2023-02-03T07:40:49;10.40;99.90
23371;DHT22;11858;51.056;3.712;2023-02-03T07:43:15;10.60;99.90
23371;DHT22;11858;51.056;3.712;2023-02-03T07:45:41;10.50;99.90
23371;DHT22;11858;51.056;3.712;2023-02-03T07:48:06;10.60;99.90
23371;DHT22;11858;51.056;3.712;2023-02-03T07:50:32;10.50;99.90
23371;DHT22;11858;51.056;3.712;2023-02-03T07:52:59;10.50;99.90
23371;DHT22;11858;51.056;3.712;2023-02-03T07:55:25;10.50;99.90
23371;DHT22;11858;51.056;3.712;2023-02-03T07:57:57;10.50;99.90
23371;DHT22;11858;51.056;3.712;2023-02-03T08:00:24;10.50;99.90
23371;DHT22;11858;51.056;3.712;2023-02-03T08:02:50;10.40;99.90
23371;DHT22;11858;51.056;3.712;2023-02-03T08:05:16;10.40;99.90
23371;DHT22;11858;51.056;3.712;2023-02-03T08:07:43;10.40;99.90
23371;DHT22;11858;51.056;3.712;2023-02-03T08:10:10;10.50;99.90
23371;DHT22;11858;51.056;3.712;2023-02-03T08:12:36;10.60;99.90
23371;DHT22;11858;51.056;3.712;2023-02-03T08:15:03;10.50;99.90
23371;DHT22;11858;51.056;3.712;2023-02-03T08:17:29;10.70;99.90
23371;DHT22;11858;51.056;3.712;2023-02-03T08:19:55;10.80;99.90
23371;DHT22;11858;51.056;3.712;2023-02-03T08:22:21;10.70;99.90
23371;DHT22;11858;51.056;3.712;2023-02-03T08:24:47;10.70;99.90
23371;DHT22;11858;51.056;3.712;2023-02-03T08:27:15;10.80;99.90
23371;DHT22;11858;51.056;3.712;2023-02-03T08:29:41;10.90;99.90
23371;DHT22;11858;51.056;3.712;2023-02-03T08:32:09;11.00;99.90
23371;DHT22;11858;51.056;3.712;2023-02-03T08:34:36;10.80;99.90
23371;DHT22;11858;51.056;3.712;2023-02-03T08:37:03;10.70;99.90
23371;DHT22;11858;51.056;3.712;2023-02-03T08:39:29;10.90;99.90
23371;DHT22;11858;51.056;3.712;2023-02-03T08:41:55;10.90;99.90
23371;DHT22;11858;51.056;3.712;2023-02-03T08:44:21;10.90;99.90
23371;DHT22;11858;51.056;3.712;2023-02-03T08:46:51;11.00;99.90
23371;DHT22;11858;51.056;3.712;2023-02-03T08:49:17;10.90;99.90
23371;DHT22;11858;51.056;3.712;2023-02-03T08:51:47;11.00;99.90
23371;DHT22;11858;51.056;3.712;2023-02-03T08:54:14;11.00;99.90
23371;DHT22;11858;51.056;3.712;2023-02-03T08:56:40;11.00;99.90
23371;DHT22;11858;51.056;3.712;2023-02-03T08:59:06;11.10;99.90
23371;DHT22;11858;51.056;3.712;2023-02-03T09:01:32;11.30;99.90
23371;DHT22;11858;51.056;3.712;2023-02-03T09:03:58;11.20;99.90
23371;DHT22;11858;51.056;3.712;2023-02-03T09:06:27;11.20;99.90
23371;DHT22;11858;51.056;3.712;2023-02-03T09:08:54;11.20;99.90
23371;DHT22;11858;51.056;3.712;2023-02-03T09:11:20;11.20;99.90
23371;DHT22;11858;51.056;3.712;2023-02-03T09:13:46;11.30;99.90
23371;DHT22;11858;51.056;3.712;2023-02-03T09:16:14;11.40;99.90
23371;DHT22;11858;51.056;3.712;2023-02-03T09:18:44;11.30;99.90
23371;DHT22;11858;51.056;3.712;2023-02-03T09:21:11;11.30;99.90
23371;DHT22;11858;51.056;3.712;2023-02-03T09:23:39;11.30;99.90
23371;DHT22;11858;51.056;3.712;2023-02-03T09:26:07;11.40;99.90
23371;DHT22;11858;51.056;3.712;2023-02-03T09:28:34;11.50;99.90
23371;DHT22;11858;51.056;3.712;2023-02-03T09:31:00;11.60;99.90
23371;DHT22;11858;51.056;3.712;2023-02-03T09:33:27;11.60;99.90
23371;DHT22;11858;51.056;3.712;2023-02-03T09:35:53;11.70;99.90
23371;DHT22;11858;51.056;3.712;2023-02-03T09:38:19;11.70;99.90
23371;DHT22;11858;51.056;3.712;2023-02-03T09:40:50;11.90;99.90
23371;DHT22;11858;51.056;3.712;2023-02-03T09:43:34;12.40;99.90
23371;DHT22;11858;51.056;3.712;2023-02-03T09:46:11;12.50;99.90
23371;DHT22;11858;51.056;3.712;2023-02-03T09:48:44;12.60;99.90
23371;DHT22;11858;51.056;3.712;2023-02-03T09:51:19;12.70;99.90
23371;DHT22;11858;51.056;3.712;2023-02-03T09:54:00;13.10;99.90
23371;DHT22;11858;51.056;3.712;2023-02-03T09:56:32;14.10;99.90
23371;DHT22;11858;51.056;3.712;2023-02-03T09:59:00;14.70;99.90
23371;DHT22;11858;51.056;3.712;2023-02-03T10:01:39;15.10;99.90
23371;DHT22;11858;51.056;3.712;2023-02-03T10:04:36;15.00;99.90
23371;DHT22;11858;51.056;3.712;2023-02-03T10:07:37;15.00;99.90
23371;DHT22;11858;51.056;3.712;2023-02-03T10:10:59;14.10;99.90
23371;DHT22;11858;51.056;3.712;2023-02-03T10:19:12;13.10;99.90
23371;DHT22;11858;51.056;3.712;2023-02-03T10:21:44;13.40;99.90
23371;DHT22;11858;51.056;3.712;2023-02-03T10:24:16;13.10;99.90
23371;DHT22;11858;51.056;3.712;2023-02-03T10:26:43;13.10;99.90
23371;DHT22;11858;51.056;3.712;2023-02-03T10:31:43;12.80;99.90
23371;DHT22;11858;51.056;3.712;2023-02-03T10:34:13;12.90;99.90
23371;DHT22;11858;51.056;3.712;2023-02-03T10:36:55;13.10;99.90
23371;DHT22;11858;51.056;3.712;2023-02-03T10:41:56;13.00;99.90
23371;DHT22;11858;51.056;3.712;2023-02-03T10:44:30;12.80;99.90
23371;DHT22;11858;51.056;3.712;2023-02-03T10:46:59;12.70;99.90
23371;DHT22;11858;51.056;3.712;2023-02-03T10:49:26;12.60;99.90
23371;DHT22;11858;51.056;3.712;2023-02-03T10:51:56;12.60;99.90
23371;DHT22;11858;51.056;3.712;2023-02-03T10:56:56;12.50;99.90
23371;DHT22;11858;51.056;3.712;2023-02-03T10:59:30;12.50;99.90
23371;DHT22;11858;51.056;3.712;2023-02-03T11:01:58;12.40;99.90
23371;DHT22;11858;51.056;3.712;2023-02-03T11:04:32;12.40;99.90
23371;DHT22;11858;51.056;3.712;2023-02-03T11:07:00;12.50;99.90
23371;DHT22;11858;51.056;3.712;2023-02-03T11:09:36;12.40;99.90
23371;DHT22;11858;51.056;3.712;2023-02-03T11:14:39;12.40;99.90
23371;DHT22;11858;51.056;3.712;2023-02-03T11:17:13;12.40;99.90
23371;DHT22;11858;51.056;3.712;2023-02-03T11:19:46;12.50;99.90
23371;DHT22;11858;51.056;3.712;2023-02-03T11:22:24;12.40;99.90
23371;DHT22;11858;51.056;3.712;2023-02-03T11:24:51;12.30;99.90
23371;DHT22;11858;51.056;3.712;2023-02-03T11:27:18;12.30;99.90
23371;DHT22;11858;51.056;3.712;2023-02-03T11:29:49;12.30;99.90
23371;DHT22;11858;51.056;3.712;2023-02-03T11:32:32;12.50;99.90
23371;DHT22;11858;51.056;3.712;2023-02-03T11:35:16;12.50;99.90
23371;DHT22;11858;51.056;3.712;2023-02-03T11:37:48;12.60;99.90
23371;DHT22;11858;51.056;3.712;2023-02-03T11:42:42;12.50;99.90
23371;DHT22;11858;51.056;3.712;2023-02-03T11:48:22;12.60;99.90
23371;DHT22;11858;51.056;3.712;2023-02-03T11:59:21;12.90;99.90
23371;DHT22;11858;51.056;3.712;2023-02-03T12:02:20;13.10;99.90
23371;DHT22;11858;51.056;3.712;2023-02-03T12:05:16;13.30;99.90
23371;DHT22;11858;51.056;3.712;2023-02-03T12:14:06;13.50;99.90
23371;DHT22;11858;51.056;3.712;2023-02-03T12:16:51;13.80;99.90
23371;DHT22;11858;51.056;3.712;2023-02-03T12:25:27;13.90;99.90
23371;DHT22;11858;51.056;3.712;2023-02-03T12:28:04;13.90;99.90
23371;DHT22;11858;51.056;3.712;2023-02-03T12:30:42;13.90;99.90
23371;DHT22;11858;51.056;3.712;2023-02-03T12:33:23;13.70;99.90
23371;DHT22;11858;51.056;3.712;2023-02-03T12:38:35;13.70;99.90
23371;DHT22;11858;51.056;3.712;2023-02-03T12:41:09;13.30;99.90
23371;DHT22;11858;51.056;3.712;2023-02-03T12:43:47;13.30;99.90
23371;DHT22;11858;51.056;3.712;2023-02-03T12:46:36;13.20;99.90
23371;DHT22;11858;51.056;3.712;2023-02-03T12:52:29;13.20;99.90
23371;DHT22;11858;51.056;3.712;2023-02-03T12:55:07;13.20;99.90
23371;DHT22;11858;51.056;3.712;2023-02-03T12:57:48;13.20;99.90
23371;DHT22;11858;51.056;3.712;2023-02-03T13:00:44;13.30;99.90
23371;DHT22;11858;51.056;3.712;2023-02-03T13:03:32;13.30;99.90
23371;DHT22;11858;51.056;3.712;2023-02-03T13:11:30;13.20;99.90
23371;DHT22;11858;51.056;3.712;2023-02-03T13:14:09;13.20;99.90
23371;DHT22;11858;51.056;3.712;2023-02-03T13:16:43;13.30;99.90
23371;DHT22;11858;51.056;3.712;2023-02-03T13:19:14;13.30;99.90
23371;DHT22;11858;51.056;3.712;2023-02-03T13:21:41;13.20;99.90
23371;DHT22;11858;51.056;3.712;2023-02-03T13:24:09;13.30;99.90
23371;DHT22;11858;51.056;3.712;2023-02-03T13:39:23;13.30;99.90
23371;DHT22;11858;51.056;3.712;2023-02-03T13:41:54;13.20;99.90
23371;DHT22;11858;51.056;3.712;2023-02-03T13:44:25;13.30;99.90
23371;DHT22;11858;51.056;3.712;2023-02-03T13:46:55;13.30;99.90
23371;DHT22;11858;51.056;3.712;2023-02-03T13:49:31;13.20;99.90
23371;DHT22;11858;51.056;3.712;2023-02-03T13:51:58;13.30;99.90
23371;DHT22;11858;51.056;3.712;2023-02-03T13:57:00;13.10;99.90
23371;DHT22;11858;51.056;3.712;2023-02-03T14:07:36;13.30;99.90
23371;DHT22;11858;51.056;3.712;2023-02-03T14:23:07;13.30;99.90
23371;DHT22;11858;51.056;3.712;2023-02-03T14:25:50;13.20;99.90
23371;DHT22;11858;51.056;3.712;2023-02-03T14:28:20;13.30;99.90
23371;DHT22;11858;51.056;3.712;2023-02-03T14:31:05;13.30;99.90
23371;DHT22;11858;51.056;3.712;2023-02-03T14:34:10;13.20;99.90
23371;DHT22;11858;51.056;3.712;2023-02-03T14:36:43;13.20;99.90
23371;DHT22;11858;51.056;3.712;2023-02-03T14:42:07;13.00;99.90
23371;DHT22;11858;51.056;3.712;2023-02-03T14:50:17;13.10;99.90
23371;DHT22;11858;51.056;3.712;2023-02-03T14:57:50;13.10;99.90
23371;DHT22;11858;51.056;3.712;2023-02-03T15:05:45;13.30;99.90
23371;DHT22;11858;51.056;3.712;2023-02-03T15:08:33;13.40;99.90
23371;DHT22;11858;51.056;3.712;2023-02-03T15:11:23;13.30;99.90
23371;DHT22;11858;51.056;3.712;2023-02-03T15:13:49;13.30;99.90
23371;DHT22;11858;51.056;3.712;2023-02-03T15:16:18;13.20;99.90
23371;DHT22;11858;51.056;3.712;2023-02-03T15:18:45;13.30;99.90
23371;DHT22;11858;51.056;3.712;2023-02-03T15:21:17;13.20;99.90
23371;DHT22;11858;51.056;3.712;2023-02-03T15:23:44;13.20;99.90
23371;DHT22;11858;51.056;3.712;2023-02-03T15:26:15;13.00;99.90
23371;DHT22;11858;51.056;3.712;2023-02-03T15:28:43;12.90;99.90
23371;DHT22;11858;51.056;3.712;2023-02-03T15:31:18;13.00;99.90
23371;DHT22;11858;51.056;3.712;2023-02-03T15:33:46;13.00;99.90
23371;DHT22;11858;51.056;3.712;2023-02-03T15:36:18;13.00;99.90
23371;DHT22;11858;51.056;3.712;2023-02-03T15:38:50;13.00;99.90
23371;DHT22;11858;51.056;3.712;2023-02-03T15:41:21;12.90;99.90
23371;DHT22;11858;51.056;3.712;2023-02-03T15:43:48;12.80;99.90
23371;DHT22;11858;51.056;3.712;2023-02-03T15:46:36;12.70;99.90
23371;DHT22;11858;51.056;3.712;2023-02-03T15:54:36;12.80;99.90
23371;DHT22;11858;51.056;3.712;2023-02-03T15:57:19;12.60;99.90
23371;DHT22;11858;51.056;3.712;2023-02-03T15:59:59;12.40;99.90
23371;DHT22;11858;51.056;3.712;2023-02-03T16:02:44;12.30;99.90
23371;DHT22;11858;51.056;3.712;2023-02-03T16:05:35;12.30;99.90
23371;DHT22;11858;51.056;3.712;2023-02-03T16:08:27;12.30;99.90
23371;DHT22;11858;51.056;3.712;2023-02-03T16:10:54;12.20;99.90
23371;DHT22;11858;51.056;3.712;2023-02-03T16:13:23;12.10;99.90
23371;DHT22;11858;51.056;3.712;2023-02-03T16:18:26;12.20;99.90
23371;DHT22;11858;51.056;3.712;2023-02-03T16:20:51;12.00;99.90
23371;DHT22;11858;51.056;3.712;2023-02-03T16:23:20;12.00;99.90
23371;DHT22;11858;51.056;3.712;2023-02-03T16:26:16;12.00;99.90
23371;DHT22;11858;51.056;3.712;2023-02-03T16:28:43;12.20;99.90
23371;DHT22;11858;51.056;3.712;2023-02-03T16:31:27;12.10;99.90
23371;DHT22;11858;51.056;3.712;2023-02-03T16:34:16;12.00;99.90
23371;DHT22;11858;51.056;3.712;2023-02-03T16:37:11;11.80;99.90
23371;DHT22;11858;51.056;3.712;2023-02-03T16:39:55;11.80;99.90
23371;DHT22;11858;51.056;3.712;2023-02-03T16:42:39;11.80;99.90
23371;DHT22;11858;51.056;3.712;2023-02-03T16:45:24;11.90;99.90
23371;DHT22;11858;51.056;3.712;2023-02-03T16:48:12;12.00;99.90
23371;DHT22;11858;51.056;3.712;2023-02-03T16:50:57;12.10;99.90
23371;DHT22;11858;51.056;3.712;2023-02-03T16:53:29;12.10;99.90
23371;DHT22;11858;51.056;3.712;2023-02-03T16:55:57;11.80;99.90
23371;DHT22;11858;51.056;3.712;2023-02-03T16:58:23;11.80;99.90
23371;DHT22;11858;51.056;3.712;2023-02-03T17:00:51;11.80;99.90
23371;DHT22;11858;51.056;3.712;2023-02-03T17:03:20;11.70;99.90
23371;DHT22;11858;51.056;3.712;2023-02-03T17:05:47;11.70;99.90
23371;DHT22;11858;51.056;3.712;2023-02-03T17:08:15;11.70;99.90
23371;DHT22;11858;51.056;3.712;2023-02-03T17:10:43;11.60;99.90
23371;DHT22;11858;51.056;3.712;2023-02-03T17:13:09;11.60;99.90
23371;DHT22;11858;51.056;3.712;2023-02-03T17:15:44;11.60;99.90
23371;DHT22;11858;51.056;3.712;2023-02-03T17:18:11;11.60;99.90
23371;DHT22;11858;51.056;3.712;2023-02-03T17:20:40;11.70;99.90
23371;DHT22;11858;51.056;3.712;2023-02-03T17:23:06;11.60;99.90
23371;DHT22;11858;51.056;3.712;2023-02-03T17:25:33;11.60;99.90
23371;DHT22;11858;51.056;3.712;2023-02-03T17:28:02;11.60;99.90
23371;DHT22;11858;51.056;3.712;2023-02-03T17:30:27;11.60;99.90
23371;DHT22;11858;51.056;3.712;2023-02-03T17:32:54;11.70;99.90
23371;DHT22;11858;51.056;3.712;2023-02-03T17:35:19;11.70;99.90
23371;DHT22;11858;51.056;3.712;2023-02-03T17:37:45;11.60;99.90
23371;DHT22;11858;51.056;3.712;2023-02-03T17:40:11;11.70;99.90
23371;DHT22;11858;51.056;3.712;2023-02-03T17:42:37;11.70;99.90
23371;DHT22;11858;51.056;3.712;2023-02-03T17:45:03;11.70;99.90
23371;DHT22;11858;51.056;3.712;2023-02-03T17:47:28;11.60;99.90
23371;DHT22;11858;51.056;3.712;2023-02-03T17:49:54;11.60;99.90
23371;DHT22;11858;51.056;3.712;2023-02-03T17:52:20;11.70;99.90
23371;DHT22;11858;51.056;3.712;2023-02-03T17:54:46;11.50;99.90
23371;DHT22;11858;51.056;3.712;2023-02-03T17:57:12;11.50;99.90
23371;DHT22;11858;51.056;3.712;2023-02-03T17:59:37;11.50;99.90
23371;DHT22;11858;51.056;3.712;2023-02-03T18:02:04;11.50;99.90
23371;DHT22;11858;51.056;3.712;2023-02-03T18:04:29;11.60;99.90
23371;DHT22;11858;51.056;3.712;2023-02-03T18:06:55;11.50;99.90
23371;DHT22;11858;51.056;3.712;2023-02-03T18:09:21;11.60;99.90
23371;DHT22;11858;51.056;3.712;2023-02-03T18:11:47;11.50;99.90
23371;DHT22;11858;51.056;3.712;2023-02-03T18:14:13;11.50;99.90
23371;DHT22;11858;51.056;3.712;2023-02-03T18:16:40;11.40;99.90
23371;DHT22;11858;51.056;3.712;2023-02-03T18:19:09;11.40;99.90